createdAt,value
2022-12-04T00:01:07.144Z,0.19
2022-12-04T00:03:34.199Z,0.27
2022-12-04T00:06:06.609Z,0.33
2022-12-04T00:08:33.615Z,0.30
2022-12-04T00:11:01.098Z,0.26
2022-12-04T00:13:27.964Z,0.07
2022-12-04T00:15:54.880Z,-0.10
2022-12-04T00:18:21.678Z,-0.07
2022-12-04T00:20:48.642Z,-0.00
2022-12-04T00:23:15.716Z,0.04
2022-12-04T00:25:42.501Z,-0.06
2022-12-04T00:28:09.562Z,-0.17
2022-12-04T00:30:40.814Z,-0.20
2022-12-04T00:33:07.681Z,-0.24
2022-12-04T00:35:34.437Z,-0.21
2022-12-04T00:38:02.685Z,-0.35
2022-12-04T00:40:29.359Z,-0.37
2022-12-04T00:42:56.171Z,-0.27
2022-12-04T00:45:22.952Z,-0.24
2022-12-04T00:47:49.710Z,-0.39
2022-12-04T00:50:16.443Z,-0.55
2022-12-04T00:52:43.408Z,-0.61
2022-12-04T00:55:10.280Z,-0.57
2022-12-04T00:57:37.044Z,-0.50
2022-12-04T01:00:05.455Z,-0.49
2022-12-04T01:02:33.545Z,-0.52
2022-12-04T01:05:01.042Z,-0.50
2022-12-04T01:07:27.857Z,-0.51
2022-12-04T01:09:55.297Z,-0.50
2022-12-04T01:12:22.295Z,-0.47
2022-12-04T01:14:49.122Z,-0.37
2022-12-04T01:17:15.803Z,-0.34
2022-12-04T01:19:42.621Z,-0.43
2022-12-04T01:22:09.377Z,-0.34
2022-12-04T01:24:36.073Z,-0.33
2022-12-04T01:27:02.781Z,-0.27
2022-12-04T01:29:29.471Z,-0.21
2022-12-04T01:31:56.215Z,-0.19
2022-12-04T01:34:24.613Z,-0.36
2022-12-04T01:36:52.294Z,-0.38
2022-12-04T01:39:19.075Z,-0.35
2022-12-04T01:41:45.846Z,-0.30
2022-12-04T01:44:18.452Z,-0.27
2022-12-04T01:46:49.684Z,-0.22
2022-12-04T01:49:46.636Z,-0.17
2022-12-04T01:52:17.285Z,-0.14
2022-12-04T01:54:49.529Z,-0.06
2022-12-04T01:57:21.496Z,-0.01
2022-12-04T01:59:53.438Z,-0.02
2022-12-04T02:02:33.438Z,-0.07
2022-12-04T02:05:02.683Z,-0.22
2022-12-04T02:07:29.616Z,-0.20
2022-12-04T02:10:03.076Z,-0.21
2022-12-04T02:12:45.568Z,-0.29
2022-12-04T02:15:22.614Z,-0.29
2022-12-04T02:18:10.988Z,-0.27
2022-12-04T02:20:59.576Z,-0.22
2022-12-04T02:24:00.851Z,-0.19
2022-12-04T02:26:47.389Z,-0.23
2022-12-04T02:29:23.314Z,-0.28
2022-12-04T02:32:19.466Z,-0.31
2022-12-04T02:35:04.592Z,-0.36
2022-12-04T02:37:41.886Z,-0.32
2022-12-04T02:40:16.358Z,-0.27
2022-12-04T02:42:51.954Z,-0.27
2022-12-04T02:45:29.746Z,-0.33
2022-12-04T02:48:01.670Z,-0.38
2022-12-04T02:50:30.041Z,-0.36
2022-12-04T02:53:22.768Z,-0.28
2022-12-04T02:55:55.121Z,-0.13
2022-12-04T02:58:30.658Z,-0.06
2022-12-04T03:01:02.068Z,-0.03
2022-12-04T03:03:33.049Z,0.02
2022-12-04T03:06:09.800Z,0.05
2022-12-04T03:08:44.729Z,0.07
2022-12-04T03:11:11.792Z,0.01
2022-12-04T03:13:44.800Z,0.02
2022-12-04T03:16:37.582Z,0.04
2022-12-04T03:19:15.660Z,0.08
2022-12-04T03:21:49.117Z,0.16
2022-12-04T03:24:37.421Z,0.21
2022-12-04T03:27:16.346Z,0.26
2022-12-04T03:29:57.954Z,0.22
2022-12-04T03:32:33.894Z,0.19
2022-12-04T03:35:06.500Z,0.16
2022-12-04T03:37:59.380Z,0.11
2022-12-04T03:40:37.512Z,0.12
2022-12-04T03:43:19.750Z,0.08
2022-12-04T03:46:05.020Z,-0.05
2022-12-04T03:48:43.616Z,-0.04
2022-12-04T03:51:26.323Z,0.02
2022-12-04T03:54:04.726Z,-0.09
2022-12-04T03:56:38.121Z,-0.16
2022-12-04T03:59:17.550Z,-0.26
2022-12-04T04:01:48.716Z,-0.30
2022-12-04T04:04:21.879Z,-0.31
2022-12-04T04:06:54.864Z,-0.27
2022-12-04T04:09:26.032Z,-0.21
2022-12-04T04:12:07.748Z,-0.15
2022-12-04T04:14:55.802Z,-0.16
2022-12-04T04:17:46.368Z,-0.15
2022-12-04T04:20:37.213Z,-0.33
2022-12-04T04:23:26.860Z,-0.44
2022-12-04T04:25:54.552Z,-0.49
2022-12-04T04:28:36.347Z,-0.53
2022-12-04T04:31:44.999Z,-0.55
2022-12-04T04:34:27.137Z,-0.56
2022-12-04T04:36:53.882Z,-0.56
2022-12-04T04:39:35.120Z,-0.53
2022-12-04T04:42:24.348Z,-0.55
2022-12-04T04:45:00.336Z,-0.55
2022-12-04T04:47:35.525Z,-0.59
2022-12-04T04:50:06.811Z,-0.62
2022-12-04T04:52:35.336Z,-0.76
2022-12-04T04:55:02.962Z,-0.82
2022-12-04T04:57:35.224Z,-0.84
2022-12-04T05:00:10.618Z,-0.80
2022-12-04T05:02:37.721Z,-0.69
2022-12-04T05:05:05.493Z,-0.55
2022-12-04T05:07:32.340Z,-0.46
2022-12-04T05:09:59.424Z,-0.44
2022-12-04T05:12:26.310Z,-0.41
2022-12-04T05:14:53.189Z,-0.38
2022-12-04T05:17:19.902Z,-0.35
2022-12-04T05:19:53.028Z,-0.50
2022-12-04T05:22:24.093Z,-0.64
2022-12-04T05:24:51.220Z,-0.79
2022-12-04T05:27:18.430Z,-0.84
2022-12-04T05:29:45.345Z,-0.93
2022-12-04T05:32:12.081Z,-0.92
2022-12-04T05:34:38.984Z,-0.88
2022-12-04T05:37:05.832Z,-0.81
2022-12-04T05:39:35.077Z,-0.80
2022-12-04T05:42:01.752Z,-0.92
2022-12-04T05:44:28.445Z,-0.95
2022-12-04T05:46:55.193Z,-0.91
2022-12-04T05:49:22.111Z,-0.82
2022-12-04T05:51:50.593Z,-0.82
2022-12-04T05:54:18.888Z,-0.86
2022-12-04T05:56:45.677Z,-0.89
2022-12-04T05:59:13.181Z,-1.02
2022-12-04T06:01:40.320Z,-1.05
2022-12-04T06:04:07.659Z,-0.97
2022-12-04T06:06:35.055Z,-0.86
2022-12-04T06:09:02.417Z,-0.87
2022-12-04T06:11:35.097Z,-0.82
2022-12-04T06:14:04.730Z,-0.70
2022-12-04T06:16:35.485Z,-0.72
2022-12-04T06:19:07.312Z,-0.75
2022-12-04T06:21:38.478Z,-0.72
2022-12-04T06:24:06.356Z,-0.76
2022-12-04T06:26:33.857Z,-0.70
2022-12-04T06:29:00.821Z,-0.67
2022-12-04T06:31:29.297Z,-0.62
2022-12-04T06:33:57.234Z,-0.55
2022-12-04T06:36:24.782Z,-0.58
2022-12-04T06:38:54.699Z,-0.58
2022-12-04T06:41:22.204Z,-0.55
2022-12-04T06:43:50.174Z,-0.59
2022-12-04T06:46:31.591Z,-0.56
2022-12-04T06:49:00.059Z,-0.53
2022-12-04T06:51:29.968Z,-0.47
2022-12-04T06:53:57.218Z,-0.37
2022-12-04T06:56:26.444Z,-0.30
2022-12-04T06:58:55.510Z,-0.24
2022-12-04T07:01:25.604Z,-0.29
2022-12-04T07:03:53.989Z,-0.42
2022-12-04T07:06:28.409Z,-0.38
2022-12-04T07:09:11.987Z,-0.39
2022-12-04T07:11:41.105Z,-0.65
2022-12-04T07:14:08.281Z,-0.76
2022-12-04T07:16:40.714Z,-0.66
2022-12-04T07:19:09.581Z,-0.50
2022-12-04T07:21:36.347Z,-0.42
2022-12-04T07:24:03.623Z,-0.38
2022-12-04T07:26:30.384Z,-0.25
2022-12-04T07:28:59.442Z,-0.17
2022-12-04T07:31:28.462Z,-0.06
2022-12-04T07:33:56.280Z,0.00
2022-12-04T07:36:24.683Z,-0.05
2022-12-04T07:38:51.708Z,-0.11
2022-12-04T07:41:19.290Z,-0.12
2022-12-04T07:43:46.405Z,-0.00
2022-12-04T07:46:17.188Z,0.09
2022-12-04T07:48:44.214Z,0.16
2022-12-04T07:51:15.081Z,0.13
2022-12-04T07:53:43.030Z,0.18
2022-12-04T07:56:11.405Z,0.13
2022-12-04T07:58:39.053Z,0.19
2022-12-04T08:01:10.242Z,0.25
2022-12-04T08:03:39.827Z,0.19
2022-12-04T08:06:10.526Z,0.14
2022-12-04T08:08:37.644Z,0.26
2022-12-04T08:11:06.571Z,0.24
2022-12-04T08:13:34.618Z,0.29
2022-12-04T08:16:03.430Z,0.35
2022-12-04T08:18:30.983Z,0.39
2022-12-04T08:21:07.988Z,0.33
2022-12-04T08:23:35.354Z,0.25
2022-12-04T08:26:03.260Z,0.33
2022-12-04T08:28:31.237Z,0.49
2022-12-04T08:31:07.221Z,0.61
2022-12-04T08:33:34.904Z,0.67
2022-12-04T08:36:01.886Z,0.73
2022-12-04T08:38:28.656Z,0.85
2022-12-04T08:41:00.486Z,0.90
2022-12-04T08:43:27.865Z,1.03
2022-12-04T08:45:59.428Z,1.20
2022-12-04T08:48:26.638Z,1.36
2022-12-04T08:50:54.003Z,1.41
2022-12-04T08:53:22.135Z,1.47
2022-12-04T08:55:49.608Z,1.50
2022-12-04T08:58:16.797Z,1.49
2022-12-04T09:00:43.943Z,1.43
2022-12-04T09:03:16.381Z,1.45
2022-12-04T09:05:45.279Z,1.58
2022-12-04T09:08:17.126Z,1.61
2022-12-04T09:10:44.438Z,1.54
2022-12-04T09:13:11.141Z,1.45
2022-12-04T09:15:39.423Z,1.48
2022-12-04T09:18:07.158Z,1.51
2022-12-04T09:20:34.099Z,1.41
2022-12-04T09:23:04.333Z,1.36
2022-12-04T09:25:36.335Z,1.15
2022-12-04T09:28:03.630Z,1.03
2022-12-04T09:30:30.573Z,1.10
2022-12-04T09:32:57.359Z,1.16
2022-12-04T09:35:24.258Z,1.18
2022-12-04T09:37:51.083Z,1.14
2022-12-04T09:40:27.530Z,1.19
2022-12-04T09:43:23.938Z,1.33
2022-12-04T09:45:53.608Z,1.22
2022-12-04T09:48:26.038Z,1.23
2022-12-04T09:50:54.344Z,1.25
2022-12-04T09:53:48.269Z,1.34
2022-12-04T09:56:21.990Z,1.45
2022-12-04T09:59:02.642Z,1.49
2022-12-04T10:01:43.022Z,1.55
2022-12-04T10:04:11.431Z,1.62
2022-12-04T10:06:57.577Z,1.58
2022-12-04T10:09:42.817Z,1.55
2022-12-04T10:12:37.384Z,1.52
2022-12-04T10:15:22.687Z,1.57
2022-12-04T10:18:08.142Z,1.74
2022-12-04T10:20:53.600Z,1.82
2022-12-04T10:24:12.640Z,1.75
2022-12-04T10:26:44.762Z,1.76
2022-12-04T10:29:33.872Z,1.84
2022-12-04T10:32:22.079Z,1.91
2022-12-04T10:34:51.808Z,2.08
2022-12-04T10:37:19.360Z,2.13
2022-12-04T10:39:55.268Z,2.14
2022-12-04T10:42:27.426Z,2.26
2022-12-04T10:44:54.872Z,2.38
2022-12-04T10:47:24.162Z,2.50
2022-12-04T10:50:00.060Z,2.56
2022-12-04T10:52:26.876Z,2.60
2022-12-04T10:55:00.923Z,2.63
2022-12-04T10:57:44.894Z,2.59
2022-12-04T11:00:27.965Z,2.53
2022-12-04T11:02:57.712Z,2.45
2022-12-04T11:05:36.492Z,2.34
2022-12-04T11:08:04.591Z,2.31
2022-12-04T11:10:32.053Z,2.37
2022-12-04T11:13:02.336Z,2.38
2022-12-04T11:15:30.209Z,2.43
2022-12-04T11:18:18.908Z,2.49
2022-12-04T11:20:53.473Z,2.59
2022-12-04T11:23:21.045Z,2.63
2022-12-04T11:25:50.924Z,2.65
2022-12-04T11:28:41.018Z,2.74
2022-12-04T11:31:15.099Z,2.81
2022-12-04T11:33:49.282Z,2.89
2022-12-04T11:36:22.106Z,2.96
2022-12-04T11:38:52.649Z,3.03
2022-12-04T11:41:45.646Z,3.13
2022-12-04T11:44:25.841Z,3.26
2022-12-04T11:46:55.214Z,3.29
2022-12-04T11:49:23.851Z,3.29
2022-12-04T11:52:09.408Z,3.30
2022-12-04T11:54:38.934Z,3.32
2022-12-04T11:57:05.715Z,3.26
2022-12-04T11:59:38.584Z,3.22
2022-12-04T12:02:33.400Z,3.21
2022-12-04T12:05:07.555Z,3.19
2022-12-04T12:08:02.744Z,3.16
2022-12-04T12:10:45.415Z,3.21
2022-12-04T12:13:34.732Z,3.24
2022-12-04T12:16:30.678Z,3.24
2022-12-04T12:19:21.601Z,3.28
2022-12-04T12:22:18.190Z,3.30
2022-12-04T12:24:51.568Z,3.34
2022-12-04T12:27:27.413Z,3.30
2022-12-04T12:30:06.014Z,3.26
2022-12-04T12:32:47.381Z,3.24
2022-12-04T12:35:35.742Z,3.21
2022-12-04T12:38:09.767Z,3.22
2022-12-04T12:40:42.650Z,3.22
2022-12-04T12:43:09.384Z,3.20
2022-12-04T12:45:56.443Z,3.24
2022-12-04T12:48:25.910Z,3.26
2022-12-04T12:51:28.556Z,3.25
2022-12-04T12:53:52.891Z,3.20
2022-12-04T12:56:31.177Z,3.16
2022-12-04T12:59:02.727Z,3.10
2022-12-04T13:01:59.975Z,3.12
2022-12-04T13:04:43.148Z,3.14
2022-12-04T13:07:38.705Z,3.19
2022-12-04T13:10:27.074Z,3.25
2022-12-04T13:13:01.685Z,3.27
2022-12-04T13:15:45.058Z,3.28
2022-12-04T13:18:27.051Z,3.27
2022-12-04T13:21:00.473Z,3.19
2022-12-04T13:23:33.179Z,3.13
2022-12-04T13:26:13.860Z,3.09
2022-12-04T13:28:52.961Z,3.03
2022-12-04T13:31:36.984Z,3.00
2022-12-04T13:34:03.715Z,2.95
2022-12-04T13:36:55.092Z,2.92
2022-12-04T13:39:43.496Z,2.86
2022-12-04T13:42:36.607Z,2.86
2022-12-04T13:45:10.086Z,2.83
2022-12-04T13:47:37.468Z,2.85
2022-12-04T13:50:20.056Z,2.85
2022-12-04T13:52:48.793Z,2.87
2022-12-04T13:55:35.891Z,2.89
2022-12-04T13:58:25.604Z,2.90
2022-12-04T14:01:30.247Z,2.91
2022-12-04T14:03:59.099Z,2.88
2022-12-04T14:06:31.161Z,2.80
2022-12-04T14:09:07.103Z,2.80
2022-12-04T14:11:44.687Z,2.83
2022-12-04T14:14:23.693Z,2.89
2022-12-04T14:16:51.311Z,2.96
2022-12-04T14:19:31.876Z,2.99
2022-12-04T14:21:58.803Z,3.00
2022-12-04T14:24:36.640Z,3.00
2022-12-04T14:27:31.459Z,3.01
2022-12-04T14:29:59.294Z,2.99
2022-12-04T14:32:31.286Z,3.00
2022-12-04T14:34:59.492Z,3.01
2022-12-04T14:37:33.713Z,3.03
2022-12-04T14:40:02.991Z,3.04
2022-12-04T14:42:38.267Z,3.02
2022-12-04T14:45:19.692Z,3.01
2022-12-04T14:47:52.275Z,2.97
2022-12-04T14:50:38.661Z,2.93
2022-12-04T14:53:05.408Z,2.87
2022-12-04T14:55:45.240Z,2.84
2022-12-04T14:58:29.780Z,2.84
2022-12-04T15:00:58.108Z,2.83
2022-12-04T15:03:27.028Z,2.80
2022-12-04T15:06:06.246Z,2.80
2022-12-04T15:08:34.492Z,2.78
2022-12-04T15:11:20.295Z,2.80
2022-12-04T15:13:47.215Z,2.83
2022-12-04T15:16:19.720Z,2.82
2022-12-04T15:18:58.356Z,2.85
2022-12-04T15:21:38.188Z,2.88
2022-12-04T15:24:10.023Z,2.91
2022-12-04T15:26:39.500Z,2.97
2022-12-04T15:29:08.421Z,3.02
2022-12-04T15:31:46.213Z,3.06
2022-12-04T15:34:16.821Z,3.06
2022-12-04T15:36:56.925Z,3.07
2022-12-04T15:39:27.303Z,3.03
2022-12-04T15:42:23.360Z,2.99
2022-12-04T15:44:52.141Z,2.97
2022-12-04T15:47:24.938Z,3.01
2022-12-04T15:49:51.992Z,3.04
2022-12-04T15:52:21.571Z,3.02
2022-12-04T15:54:59.217Z,3.04
2022-12-04T15:57:30.953Z,3.08
2022-12-04T16:00:02.224Z,3.05
2022-12-04T16:02:35.475Z,3.01
2022-12-04T16:05:13.896Z,3.00
2022-12-04T16:07:52.457Z,3.03
2022-12-04T16:10:35.324Z,3.05
2022-12-04T16:13:04.950Z,3.05
2022-12-04T16:15:43.164Z,3.06
2022-12-04T16:18:13.349Z,3.07
2022-12-04T16:20:40.948Z,3.06
2022-12-04T16:23:08.902Z,3.05
2022-12-04T16:25:35.573Z,3.04
2022-12-04T16:28:02.382Z,3.00
2022-12-04T16:30:32.986Z,2.96
2022-12-04T16:33:00.157Z,2.95
2022-12-04T16:35:26.929Z,2.94
2022-12-04T16:37:53.661Z,2.96
2022-12-04T16:40:20.563Z,2.99
2022-12-04T16:42:47.352Z,3.01
2022-12-04T16:45:32.972Z,3.00
2022-12-04T16:47:59.765Z,3.02
2022-12-04T16:50:27.502Z,3.00
2022-12-04T16:52:54.943Z,3.02
2022-12-04T16:55:28.737Z,3.02
2022-12-04T16:57:55.554Z,3.05
2022-12-04T17:00:22.590Z,3.09
2022-12-04T17:02:49.960Z,3.10
2022-12-04T17:05:26.647Z,3.15
2022-12-04T17:07:54.004Z,3.18
2022-12-04T17:10:24.327Z,3.17
2022-12-04T17:12:52.971Z,3.05
2022-12-04T17:15:20.358Z,2.91
2022-12-04T17:17:47.231Z,2.78
2022-12-04T17:20:17.527Z,2.70
2022-12-04T17:22:44.341Z,2.70
2022-12-04T17:25:11.822Z,2.75
2022-12-04T17:27:39.266Z,2.76
2022-12-04T17:30:07.744Z,2.75
2022-12-04T17:32:35.067Z,2.74
2022-12-04T17:35:04.136Z,2.74
2022-12-04T17:37:32.529Z,2.75
2022-12-04T17:39:59.416Z,2.74
2022-12-04T17:42:26.640Z,2.72
2022-12-04T17:44:53.988Z,2.70
2022-12-04T17:47:21.102Z,2.69
2022-12-04T17:49:47.945Z,2.69
2022-12-04T17:52:14.766Z,2.69
2022-12-04T17:54:41.594Z,2.71
2022-12-04T17:57:08.307Z,2.72
2022-12-04T17:59:35.048Z,2.67
2022-12-04T18:02:01.839Z,2.63
2022-12-04T18:04:28.651Z,2.61
2022-12-04T18:06:55.924Z,2.58
2022-12-04T18:09:22.650Z,2.58
2022-12-04T18:11:49.733Z,2.56
2022-12-04T18:14:21.494Z,2.56
2022-12-04T18:16:52.392Z,2.56
2022-12-04T18:19:20.904Z,2.55
2022-12-04T18:21:48.622Z,2.53
2022-12-04T18:24:16.829Z,2.47
2022-12-04T18:26:45.882Z,2.44
2022-12-04T18:29:19.075Z,2.38
2022-12-04T18:31:46.439Z,2.28
2022-12-04T18:34:14.194Z,2.24
2022-12-04T18:36:42.362Z,2.24
2022-12-04T18:39:15.709Z,2.23
2022-12-04T18:41:43.415Z,2.21
2022-12-04T18:44:11.023Z,2.18
2022-12-04T18:46:38.348Z,2.16
2022-12-04T18:49:06.108Z,2.08
2022-12-04T18:51:34.405Z,1.93
2022-12-04T18:54:06.842Z,1.78
2022-12-04T18:56:34.967Z,1.66
2022-12-04T18:59:08.061Z,1.56
2022-12-04T19:01:35.350Z,1.45
2022-12-04T19:04:05.979Z,1.39
2022-12-04T19:06:36.116Z,1.32
2022-12-04T19:09:07.508Z,1.17
2022-12-04T19:11:37.182Z,1.13
2022-12-04T19:14:12.561Z,1.07
2022-12-04T19:16:43.403Z,1.04
2022-12-04T19:19:11.917Z,1.04
2022-12-04T19:21:38.849Z,0.99
2022-12-04T19:24:06.247Z,0.93
2022-12-04T19:26:34.019Z,0.86
2022-12-04T19:29:02.140Z,0.82
2022-12-04T19:31:32.536Z,0.79
2022-12-04T19:33:59.813Z,0.75
2022-12-04T19:36:29.351Z,0.72
2022-12-04T19:38:57.588Z,0.68
2022-12-04T19:41:27.199Z,0.60
2022-12-04T19:43:56.814Z,0.51
2022-12-04T19:46:25.560Z,0.48
2022-12-04T19:48:58.213Z,0.46
2022-12-04T19:51:25.583Z,0.46
2022-12-04T19:53:53.965Z,0.42
2022-12-04T19:56:23.909Z,0.40
2022-12-04T19:58:52.629Z,0.40
2022-12-04T20:01:24.627Z,0.40
2022-12-04T20:03:52.035Z,0.35
2022-12-04T20:06:21.412Z,0.32
2022-12-04T20:08:57.617Z,0.28
2022-12-04T20:11:25.488Z,0.23
2022-12-04T20:13:56.145Z,0.17
2022-12-04T20:16:25.087Z,0.10
2022-12-04T20:18:52.887Z,0.07
2022-12-04T20:21:22.453Z,0.07
2022-12-04T20:23:51.126Z,0.06
2022-12-04T20:26:21.947Z,0.09
2022-12-04T20:28:48.829Z,0.06
2022-12-04T20:31:22.112Z,0.03
2022-12-04T20:33:50.941Z,0.03
2022-12-04T20:36:19.375Z,0.05
2022-12-04T20:38:46.236Z,0.03
2022-12-04T20:41:15.486Z,-0.00
2022-12-04T20:43:43.776Z,-0.06
2022-12-04T20:46:22.416Z,-0.12
2022-12-04T20:48:50.483Z,-0.16
2022-12-04T20:51:28.612Z,-0.17
2022-12-04T20:53:59.699Z,-0.20
2022-12-04T20:56:29.522Z,-0.20
2022-12-04T20:58:58.633Z,-0.21
2022-12-04T21:01:26.029Z,-0.22
2022-12-04T21:03:53.019Z,-0.24
2022-12-04T21:06:34.253Z,-0.29
2022-12-04T21:09:05.654Z,-0.36
2022-12-04T21:11:41.493Z,-0.37
2022-12-04T21:14:39.158Z,-0.34
2022-12-04T21:17:08.793Z,-0.35
2022-12-04T21:19:35.885Z,-0.36
2022-12-04T21:22:02.846Z,-0.38
2022-12-04T21:24:35.525Z,-0.38
2022-12-04T21:27:02.481Z,-0.36
2022-12-04T21:29:29.515Z,-0.38
2022-12-04T21:31:56.325Z,-0.44
2022-12-04T21:34:23.243Z,-0.52
2022-12-04T21:36:50.081Z,-0.54
2022-12-04T21:39:16.853Z,-0.58
2022-12-04T21:42:02.501Z,-0.59
2022-12-04T21:44:29.290Z,-0.60
2022-12-04T21:46:56.101Z,-0.57
2022-12-04T21:49:23.652Z,-0.53
2022-12-04T21:51:58.858Z,-0.49
2022-12-04T21:54:27.452Z,-0.44
2022-12-04T21:56:55.448Z,-0.45
2022-12-04T21:59:23.548Z,-0.43
2022-12-04T22:01:50.652Z,-0.45
2022-12-04T22:04:17.529Z,-0.46
2022-12-04T22:06:44.536Z,-0.45
2022-12-04T22:09:12.774Z,-0.45
2022-12-04T22:11:43.768Z,-0.45
2022-12-04T22:14:11.672Z,-0.48
2022-12-04T22:16:43.282Z,-0.47
2022-12-04T22:19:11.986Z,-0.45
2022-12-04T22:21:39.684Z,-0.48
2022-12-04T22:24:07.354Z,-0.51
2022-12-04T22:26:34.056Z,-0.54
2022-12-04T22:29:01.886Z,-0.58
2022-12-04T22:31:30.490Z,-0.62
2022-12-04T22:33:59.541Z,-0.63
2022-12-04T22:36:32.086Z,-0.60
2022-12-04T22:39:09.699Z,-0.57
2022-12-04T22:41:38.127Z,-0.55
2022-12-04T22:44:05.449Z,-0.58
2022-12-04T22:46:33.369Z,-0.56
2022-12-04T22:49:01.002Z,-0.53
2022-12-04T22:51:28.106Z,-0.53
2022-12-04T22:53:56.750Z,-0.56
2022-12-04T22:56:27.173Z,-0.60
2022-12-04T22:58:54.304Z,-0.63
2022-12-04T23:01:29.632Z,-0.61
2022-12-04T23:03:57.507Z,-0.57
2022-12-04T23:06:26.825Z,-0.51
2022-12-04T23:09:08.918Z,-0.46
2022-12-04T23:11:36.150Z,-0.44
2022-12-04T23:14:06.227Z,-0.39
2022-12-04T23:16:35.536Z,-0.36
2022-12-04T23:19:03.565Z,-0.40
2022-12-04T23:21:30.482Z,-0.48
2022-12-04T23:23:57.605Z,-0.53
2022-12-04T23:26:27.378Z,-0.58
2022-12-04T23:28:54.880Z,-0.63
2022-12-04T23:31:21.681Z,-0.66
2022-12-04T23:33:48.598Z,-0.63
2022-12-04T23:36:15.774Z,-0.57
2022-12-04T23:38:43.989Z,-0.48
2022-12-04T23:41:12.228Z,-0.41
2022-12-04T23:43:39.285Z,-0.40
2022-12-04T23:46:10.981Z,-0.35
2022-12-04T23:48:40.503Z,-0.32
2022-12-04T23:51:08.600Z,-0.28
2022-12-04T23:53:35.923Z,-0.29
2022-12-04T23:56:13.356Z,-0.32
2022-12-04T23:58:40.884Z,-0.31
